createdAt,value
2023-11-07T00:02:25.117Z,7.70
2023-11-07T00:04:51.909Z,7.70
2023-11-07T00:07:18.500Z,7.60
2023-11-07T00:09:45.130Z,7.80
2023-11-07T00:12:11.795Z,7.90
2023-11-07T00:14:38.573Z,7.60
2023-11-07T00:17:05.220Z,7.80
2023-11-07T00:19:31.945Z,7.80
2023-11-07T00:21:58.541Z,7.80
2023-11-07T00:24:25.156Z,7.90
2023-11-07T00:26:51.850Z,7.80
2023-11-07T00:29:18.497Z,7.70
2023-11-07T00:31:45.160Z,7.60
2023-11-07T00:34:12.017Z,7.60
2023-11-07T00:36:38.766Z,6.90
2023-11-07T00:39:05.446Z,7.30
2023-11-07T00:41:32.167Z,7.40
2023-11-07T00:43:58.818Z,7.60
2023-11-07T00:46:25.421Z,7.60
2023-11-07T00:48:52.199Z,7.70
2023-11-07T00:51:18.907Z,7.70
2023-11-07T00:53:45.520Z,7.70
2023-11-07T00:56:12.208Z,7.70
2023-11-07T00:58:38.827Z,7.70
2023-11-07T01:01:05.455Z,7.60
2023-11-07T01:03:32.233Z,7.50
2023-11-07T01:05:58.925Z,7.30
2023-11-07T01:08:25.583Z,7.20
2023-11-07T01:10:52.227Z,7.10
2023-11-07T01:13:18.807Z,7.20
2023-11-07T01:15:45.419Z,7.30
2023-11-07T01:18:12.202Z,7.30
2023-11-07T01:20:38.865Z,7.30
2023-11-07T01:23:05.480Z,7.10
2023-11-07T01:25:32.175Z,7.00
2023-11-07T01:27:58.787Z,7.20
2023-11-07T01:30:25.396Z,7.20
2023-11-07T01:32:52.337Z,7.30
2023-11-07T01:35:19.063Z,7.00
2023-11-07T01:37:45.651Z,6.90
2023-11-07T01:40:12.310Z,7.10
2023-11-07T01:42:38.929Z,6.90
2023-11-07T01:45:05.608Z,7.00
2023-11-07T01:47:32.334Z,6.90
2023-11-07T01:49:58.951Z,7.10
2023-11-07T01:52:25.550Z,7.00
2023-11-07T01:54:52.238Z,7.20
2023-11-07T01:57:18.901Z,7.20
2023-11-07T01:59:45.619Z,7.20
2023-11-07T02:02:12.331Z,7.20
2023-11-07T02:04:38.986Z,7.10
2023-11-07T02:07:05.612Z,7.20
2023-11-07T02:09:32.315Z,7.20
2023-11-07T02:11:58.949Z,7.30
2023-11-07T02:14:25.599Z,7.40
2023-11-07T02:16:52.286Z,7.40
2023-11-07T02:19:18.942Z,7.30
2023-11-07T02:21:45.544Z,7.30
2023-11-07T02:24:12.345Z,6.70
2023-11-07T02:26:39.032Z,6.90
2023-11-07T02:29:05.682Z,6.50
2023-11-07T02:31:32.360Z,6.60
2023-11-07T02:33:59.100Z,6.50
2023-11-07T02:36:25.800Z,6.20
2023-11-07T02:38:52.697Z,6.00
2023-11-07T02:41:19.326Z,6.10
2023-11-07T02:43:45.952Z,6.30
2023-11-07T02:46:12.663Z,6.50
2023-11-07T02:48:39.372Z,6.60
2023-11-07T02:51:06.056Z,6.50
2023-11-07T02:53:32.737Z,6.60
2023-11-07T02:55:59.381Z,6.60
2023-11-07T02:58:26.009Z,6.50
2023-11-07T03:00:52.662Z,6.70
2023-11-07T03:03:19.334Z,6.60
2023-11-07T03:05:46.172Z,6.70
2023-11-07T03:08:12.898Z,6.50
2023-11-07T03:10:39.497Z,6.60
2023-11-07T03:13:06.117Z,6.90
2023-11-07T03:15:32.769Z,7.00
2023-11-07T03:17:59.455Z,7.10
2023-11-07T03:20:26.151Z,7.20
2023-11-07T03:22:52.844Z,7.10
2023-11-07T03:25:19.453Z,6.90
2023-11-07T03:27:46.063Z,6.90
2023-11-07T03:30:12.868Z,6.80
2023-11-07T03:32:39.590Z,6.60
2023-11-07T03:35:06.247Z,6.70
2023-11-07T03:37:32.972Z,6.70
2023-11-07T03:39:59.617Z,6.60
2023-11-07T03:42:26.241Z,6.50
2023-11-07T03:44:52.948Z,6.60
2023-11-07T03:47:19.611Z,6.70
2023-11-07T03:49:46.256Z,6.80
2023-11-07T03:52:12.955Z,6.80
2023-11-07T03:54:39.607Z,6.80
2023-11-07T03:57:06.286Z,6.80
2023-11-07T03:59:33.020Z,6.80
2023-11-07T04:01:59.677Z,6.90
2023-11-07T04:04:26.343Z,6.80
2023-11-07T04:06:53.009Z,6.50
2023-11-07T04:09:19.615Z,6.60
2023-11-07T04:11:46.280Z,6.70
2023-11-07T04:14:13.003Z,6.80
2023-11-07T04:16:39.636Z,6.70
2023-11-07T04:19:06.340Z,6.70
2023-11-07T04:21:33.159Z,6.50
2023-11-07T04:23:59.806Z,6.50
2023-11-07T04:26:26.409Z,6.40
2023-11-07T04:28:53.073Z,6.30
2023-11-07T04:31:19.695Z,6.40
2023-11-07T04:33:46.406Z,6.40
2023-11-07T04:36:13.128Z,6.40
2023-11-07T04:38:39.817Z,6.50
2023-11-07T04:41:06.495Z,6.40
2023-11-07T04:43:33.202Z,5.90
2023-11-07T04:45:59.796Z,5.60
2023-11-07T04:48:26.466Z,6.00
2023-11-07T04:50:53.249Z,6.30
2023-11-07T04:53:19.874Z,6.50
2023-11-07T04:55:46.506Z,6.60
2023-11-07T04:58:13.162Z,6.50
2023-11-07T05:00:39.776Z,6.30
2023-11-07T05:03:06.699Z,6.10
2023-11-07T05:05:33.456Z,5.80
2023-11-07T05:08:00.130Z,6.00
2023-11-07T05:10:26.801Z,5.90
2023-11-07T05:12:53.500Z,6.20
2023-11-07T05:15:20.196Z,6.40
2023-11-07T05:17:46.925Z,6.60
2023-11-07T05:20:13.648Z,6.80
2023-11-07T05:22:40.276Z,6.60
2023-11-07T05:25:06.932Z,6.70
2023-11-07T05:27:33.598Z,6.80
2023-11-07T05:30:00.325Z,6.60
2023-11-07T05:32:27.142Z,6.70
2023-11-07T05:34:53.844Z,6.50
2023-11-07T05:37:20.456Z,6.50
2023-11-07T05:39:47.048Z,6.20
2023-11-07T05:42:13.757Z,6.10
2023-11-07T05:44:40.461Z,6.40
2023-11-07T05:47:07.102Z,6.30
2023-11-07T05:49:33.807Z,6.60
2023-11-07T05:52:00.427Z,6.60
2023-11-07T05:54:27.077Z,6.60
2023-11-07T05:56:53.742Z,6.60
2023-11-07T05:59:20.383Z,6.70
2023-11-07T06:01:47.001Z,6.50
2023-11-07T06:04:13.872Z,6.50
2023-11-07T06:06:40.584Z,6.40
2023-11-07T06:09:07.226Z,6.40
2023-11-07T06:11:33.935Z,6.30
2023-11-07T06:14:00.564Z,6.50
2023-11-07T06:16:27.251Z,6.60
2023-11-07T06:18:54.037Z,6.50
2023-11-07T06:21:20.692Z,6.60
2023-11-07T06:23:47.307Z,6.40
2023-11-07T06:26:13.992Z,6.40
2023-11-07T06:28:40.598Z,6.40
2023-11-07T06:31:07.236Z,6.50
2023-11-07T06:33:34.102Z,6.80
2023-11-07T06:36:00.886Z,6.80
2023-11-07T06:38:27.523Z,6.70
2023-11-07T06:40:54.215Z,6.80
2023-11-07T06:43:20.825Z,6.70
2023-11-07T06:45:47.455Z,6.80
2023-11-07T06:48:14.354Z,6.70
2023-11-07T06:50:41.065Z,6.90
2023-11-07T06:53:07.726Z,7.00
2023-11-07T06:55:34.428Z,7.20
2023-11-07T06:58:01.048Z,7.40
2023-11-07T07:00:27.822Z,7.50
2023-11-07T07:02:54.715Z,7.40
2023-11-07T07:05:21.423Z,7.70
2023-11-07T07:07:48.056Z,7.80
2023-11-07T07:10:14.710Z,7.90
2023-11-07T07:12:41.365Z,7.80
2023-11-07T07:15:08.095Z,7.90
2023-11-07T07:17:34.845Z,8.00
2023-11-07T07:20:01.509Z,8.20
2023-11-07T07:22:28.164Z,8.20
2023-11-07T07:24:54.834Z,8.10
2023-11-07T07:27:21.465Z,8.40
2023-11-07T07:29:48.085Z,8.80
2023-11-07T07:32:14.779Z,9.00
2023-11-07T07:34:41.411Z,9.20
2023-11-07T07:37:08.040Z,9.40
2023-11-07T07:39:36.127Z,9.50
2023-11-07T07:42:04.154Z,9.80
2023-11-07T07:44:30.788Z,10.00
2023-11-07T07:46:57.456Z,10.00
2023-11-07T07:49:24.289Z,10.10
2023-11-07T07:51:51.033Z,10.00
2023-11-07T07:54:35.198Z,10.10
2023-11-07T07:57:04.318Z,10.10
2023-11-07T07:59:31.044Z,10.30
2023-11-07T08:01:57.687Z,10.40
2023-11-07T08:04:24.312Z,10.80
2023-11-07T08:06:50.993Z,10.90
2023-11-07T08:09:17.636Z,11.00
2023-11-07T08:11:44.290Z,11.10
2023-11-07T08:14:10.961Z,11.20
2023-11-07T08:16:37.610Z,11.40
2023-11-07T08:19:04.336Z,11.70
2023-11-07T08:21:31.042Z,11.80
2023-11-07T08:23:57.673Z,12.00
2023-11-07T08:26:24.305Z,12.20
2023-11-07T08:28:50.990Z,12.40
2023-11-07T08:31:19.562Z,12.40
2023-11-07T08:33:46.368Z,12.60
2023-11-07T08:36:13.254Z,12.70
2023-11-07T08:38:41.117Z,12.80
2023-11-07T08:41:08.475Z,12.70
2023-11-07T08:43:35.130Z,12.90
2023-11-07T08:46:01.776Z,13.10
2023-11-07T08:48:28.498Z,13.30
2023-11-07T08:50:55.266Z,13.30
2023-11-07T08:53:21.911Z,13.20
2023-11-07T08:55:48.548Z,13.40
2023-11-07T08:58:15.258Z,13.40
2023-11-07T09:00:41.916Z,13.30
2023-11-07T09:03:08.704Z,13.40
2023-11-07T09:05:35.550Z,13.60
2023-11-07T09:08:02.201Z,13.80
2023-11-07T09:10:28.808Z,14.00
2023-11-07T09:12:55.475Z,14.10
2023-11-07T09:15:22.280Z,14.30
2023-11-07T09:17:49.030Z,14.60
2023-11-07T09:20:16.493Z,14.60
2023-11-07T09:22:43.402Z,14.70
2023-11-07T09:25:10.012Z,14.70
2023-11-07T09:27:36.691Z,14.80
2023-11-07T09:30:03.342Z,14.90
2023-11-07T09:32:30.069Z,14.90
2023-11-07T09:34:56.820Z,14.80
2023-11-07T09:37:23.446Z,14.70
2023-11-07T09:39:50.105Z,15.10
2023-11-07T09:42:16.832Z,15.20
2023-11-07T09:44:43.550Z,15.50
2023-11-07T09:47:10.208Z,15.10
2023-11-07T09:49:37.004Z,15.40
2023-11-07T09:52:03.621Z,15.40
2023-11-07T09:54:30.256Z,15.70
2023-11-07T09:56:57.070Z,15.70
2023-11-07T09:59:24.445Z,15.90
2023-11-07T10:01:51.068Z,15.90
2023-11-07T10:04:17.948Z,15.90
2023-11-07T10:06:44.657Z,16.00
2023-11-07T10:09:11.357Z,15.90
2023-11-07T10:11:38.107Z,15.90
2023-11-07T10:14:04.759Z,15.90
2023-11-07T10:16:31.485Z,15.80
2023-11-07T10:18:58.343Z,15.80
2023-11-07T10:21:25.068Z,15.60
2023-11-07T10:23:51.735Z,15.70
2023-11-07T10:26:18.427Z,15.60
2023-11-07T10:28:45.059Z,15.70
2023-11-07T10:31:11.685Z,16.00
2023-11-07T10:33:38.466Z,16.00
2023-11-07T10:36:05.262Z,16.10
2023-11-07T10:38:31.922Z,16.00
2023-11-07T10:40:58.609Z,15.50
2023-11-07T10:43:25.236Z,16.00
2023-11-07T10:45:51.839Z,16.30
2023-11-07T10:48:18.666Z,16.00
2023-11-07T10:50:45.352Z,15.80
2023-11-07T10:53:11.976Z,16.00
2023-11-07T10:55:38.690Z,15.90
2023-11-07T10:58:05.330Z,15.90
2023-11-07T11:00:32.041Z,16.00
2023-11-07T11:02:58.795Z,15.90
2023-11-07T11:05:25.414Z,15.80
2023-11-07T11:07:52.033Z,15.70
2023-11-07T11:10:18.707Z,15.90
2023-11-07T11:12:45.316Z,16.20
2023-11-07T11:15:11.998Z,16.20
2023-11-07T11:17:38.785Z,16.40
2023-11-07T11:20:05.546Z,16.40
2023-11-07T11:22:34.590Z,16.00
2023-11-07T11:25:01.250Z,16.10
2023-11-07T11:27:27.898Z,16.40
2023-11-07T11:29:54.588Z,15.80
2023-11-07T11:32:21.307Z,16.30
2023-11-07T11:34:47.962Z,16.50
2023-11-07T11:37:14.613Z,17.20
2023-11-07T11:39:41.295Z,16.60
2023-11-07T11:42:07.981Z,16.60
2023-11-07T11:44:34.640Z,16.70
2023-11-07T11:47:01.330Z,15.90
2023-11-07T11:49:27.981Z,15.80
2023-11-07T11:51:54.664Z,15.60
2023-11-07T11:54:21.363Z,15.90
2023-11-07T11:56:48.033Z,16.00
2023-11-07T11:59:14.656Z,16.00
2023-11-07T12:01:41.356Z,16.10
2023-11-07T12:04:08.018Z,16.40
2023-11-07T12:06:34.707Z,16.40
2023-11-07T12:09:03.631Z,16.70
2023-11-07T12:11:42.010Z,17.00
2023-11-07T12:14:12.114Z,17.00
2023-11-07T12:16:38.741Z,16.10
2023-11-07T12:19:05.411Z,16.40
2023-11-07T12:21:32.167Z,16.50
2023-11-07T12:23:58.796Z,16.40
2023-11-07T12:26:25.416Z,16.70
2023-11-07T12:28:54.317Z,16.80
2023-11-07T12:31:25.728Z,16.60
2023-11-07T12:33:52.926Z,16.40
2023-11-07T12:36:19.630Z,16.00
2023-11-07T12:38:46.444Z,15.60
2023-11-07T12:41:13.177Z,15.70
2023-11-07T12:43:39.799Z,15.80
2023-11-07T12:46:06.423Z,16.00
2023-11-07T12:48:33.145Z,15.70
2023-11-07T12:50:59.859Z,16.00
2023-11-07T12:53:26.469Z,15.60
2023-11-07T12:55:53.238Z,15.40
2023-11-07T12:58:19.914Z,15.20
2023-11-07T13:00:46.538Z,15.10
2023-11-07T13:03:13.352Z,14.80
2023-11-07T13:05:40.134Z,14.90
2023-11-07T13:08:06.778Z,15.20
2023-11-07T13:10:33.459Z,14.80
2023-11-07T13:13:00.072Z,14.80
2023-11-07T13:15:26.754Z,14.90
2023-11-07T13:17:53.519Z,15.10
2023-11-07T13:20:20.163Z,15.50
2023-11-07T13:22:46.792Z,15.10
2023-11-07T13:25:13.512Z,15.20
2023-11-07T13:27:40.141Z,15.50
2023-11-07T13:30:06.826Z,15.80
2023-11-07T13:32:33.628Z,16.00
2023-11-07T13:35:00.431Z,16.00
2023-11-07T13:37:27.198Z,15.40
2023-11-07T13:39:53.893Z,15.50
2023-11-07T13:42:20.647Z,15.20
2023-11-07T13:44:47.303Z,15.20
2023-11-07T13:47:13.981Z,14.90
2023-11-07T13:49:40.654Z,14.80
2023-11-07T13:52:07.330Z,14.80
2023-11-07T13:54:34.016Z,14.90
2023-11-07T13:57:00.741Z,15.00
2023-11-07T13:59:27.426Z,15.20
2023-11-07T14:01:54.134Z,15.30
2023-11-07T14:04:20.861Z,15.10
2023-11-07T14:06:47.548Z,15.20
2023-11-07T14:09:14.311Z,15.20
2023-11-07T14:11:40.978Z,15.30
2023-11-07T14:14:07.616Z,15.20
2023-11-07T14:16:34.333Z,15.20
2023-11-07T14:19:01.135Z,15.10
2023-11-07T14:21:27.912Z,15.10
2023-11-07T14:23:54.613Z,15.00
2023-11-07T14:26:21.279Z,15.10
2023-11-07T14:28:58.631Z,15.40
2023-11-07T14:31:28.188Z,15.50
2023-11-07T14:33:54.940Z,15.70
2023-11-07T14:36:21.700Z,15.60
2023-11-07T14:38:48.436Z,15.30
2023-11-07T14:41:15.068Z,15.00
2023-11-07T14:43:41.771Z,15.00
2023-11-07T14:46:08.495Z,15.30
2023-11-07T14:48:35.258Z,15.20
2023-11-07T14:51:02.102Z,15.20
2023-11-07T14:53:28.813Z,15.30
2023-11-07T14:55:55.421Z,15.20
2023-11-07T14:58:23.300Z,15.40
2023-11-07T15:00:51.761Z,15.40
2023-11-07T15:03:18.459Z,15.60
2023-11-07T15:05:45.206Z,15.70
2023-11-07T15:08:12.004Z,15.70
2023-11-07T15:10:38.700Z,15.70
2023-11-07T15:13:05.323Z,15.50
2023-11-07T15:15:32.139Z,15.40
2023-11-07T15:17:59.344Z,15.20
2023-11-07T15:20:26.355Z,15.20
2023-11-07T15:22:53.044Z,14.90
2023-11-07T15:25:19.729Z,14.90
2023-11-07T15:27:46.385Z,14.90
2023-11-07T15:30:13.204Z,14.90
2023-11-07T15:32:39.862Z,14.80
2023-11-07T15:35:07.659Z,14.80
2023-11-07T15:37:34.577Z,14.60
2023-11-07T15:40:01.393Z,14.60
2023-11-07T15:42:28.087Z,14.30
2023-11-07T15:44:54.968Z,14.30
2023-11-07T15:47:21.617Z,14.10
2023-11-07T15:49:48.251Z,14.10
2023-11-07T15:52:14.930Z,14.20
2023-11-07T15:54:41.595Z,14.10
2023-11-07T15:57:09.015Z,14.00
2023-11-07T15:59:36.542Z,13.90
2023-11-07T16:02:03.193Z,13.80
2023-11-07T16:04:29.871Z,13.80
2023-11-07T16:06:56.572Z,13.60
2023-11-07T16:09:23.297Z,13.50
2023-11-07T16:11:49.963Z,13.40
2023-11-07T16:14:16.674Z,13.10
2023-11-07T16:16:43.320Z,13.00
2023-11-07T16:19:10.068Z,13.00
2023-11-07T16:21:36.814Z,13.00
2023-11-07T16:24:03.480Z,12.90
2023-11-07T16:26:30.152Z,12.90
2023-11-07T16:28:56.841Z,13.00
2023-11-07T16:31:23.459Z,12.60
2023-11-07T16:33:50.216Z,12.40
2023-11-07T16:36:17.034Z,12.40
2023-11-07T16:38:43.734Z,12.50
2023-11-07T16:41:10.366Z,12.30
2023-11-07T16:43:37.052Z,12.20
2023-11-07T16:46:03.653Z,12.10
2023-11-07T16:48:30.425Z,12.20
2023-11-07T16:50:57.210Z,12.20
2023-11-07T16:53:23.887Z,12.40
2023-11-07T16:55:50.497Z,12.30
2023-11-07T16:58:17.178Z,12.00
2023-11-07T17:00:43.831Z,12.00
2023-11-07T17:03:10.614Z,12.00
2023-11-07T17:05:37.506Z,11.60
2023-11-07T17:08:04.251Z,11.80
2023-11-07T17:10:30.879Z,11.90
2023-11-07T17:12:57.562Z,11.90
2023-11-07T17:15:24.247Z,11.90
2023-11-07T17:17:50.924Z,11.90
2023-11-07T17:20:17.623Z,11.70
2023-11-07T17:22:44.278Z,11.40
2023-11-07T17:25:10.881Z,11.00
2023-11-07T17:27:37.614Z,10.90
2023-11-07T17:30:04.508Z,11.10
2023-11-07T17:32:31.357Z,11.30
2023-11-07T17:34:58.131Z,11.50
2023-11-07T17:37:24.752Z,11.20
2023-11-07T17:39:51.391Z,11.30
2023-11-07T17:42:18.106Z,11.50
2023-11-07T17:44:44.723Z,11.30
2023-11-07T17:47:11.344Z,11.40
2023-11-07T17:49:38.062Z,11.30
2023-11-07T17:52:04.685Z,11.50
2023-11-07T17:54:31.369Z,11.70
2023-11-07T17:56:58.112Z,11.50
2023-11-07T17:59:24.767Z,11.60
2023-11-07T18:01:51.420Z,11.60
2023-11-07T18:04:18.177Z,11.50
2023-11-07T18:06:44.899Z,11.50
2023-11-07T18:09:11.621Z,11.30
2023-11-07T18:11:38.309Z,11.50
2023-11-07T18:14:05.140Z,11.60
2023-11-07T18:16:31.790Z,11.70
2023-11-07T18:18:59.814Z,11.40
2023-11-07T18:21:28.016Z,11.50
2023-11-07T18:23:55.092Z,11.10
2023-11-07T18:26:21.746Z,11.50
2023-11-07T18:28:48.342Z,11.70
2023-11-07T18:31:14.990Z,11.80
2023-11-07T18:33:41.779Z,11.80
2023-11-07T18:36:08.570Z,11.70
2023-11-07T18:38:35.225Z,11.40
2023-11-07T18:41:01.903Z,11.20
2023-11-07T18:43:29.341Z,11.00
2023-11-07T18:45:55.956Z,11.00
2023-11-07T18:48:22.726Z,11.20
2023-11-07T18:50:49.404Z,11.40
2023-11-07T18:53:16.227Z,11.50
2023-11-07T18:55:42.989Z,11.50
2023-11-07T18:58:09.789Z,11.20
2023-11-07T19:00:36.525Z,11.30
2023-11-07T19:03:03.328Z,11.40
2023-11-07T19:05:30.193Z,11.30
2023-11-07T19:07:56.894Z,11.40
2023-11-07T19:10:23.595Z,11.50
2023-11-07T19:12:50.230Z,11.60
2023-11-07T19:15:16.975Z,11.60
2023-11-07T19:17:43.684Z,11.60
2023-11-07T19:20:10.330Z,11.60
2023-11-07T19:22:36.941Z,11.40
2023-11-07T19:25:03.613Z,11.40
2023-11-07T19:27:30.250Z,11.40
2023-11-07T19:29:56.878Z,11.40
2023-11-07T19:32:23.609Z,11.30
2023-11-07T19:34:50.235Z,11.30
2023-11-07T19:37:16.862Z,11.50
2023-11-07T19:39:43.667Z,11.60
2023-11-07T19:42:10.364Z,11.70
2023-11-07T19:44:37.036Z,11.70
2023-11-07T19:47:03.758Z,11.60
2023-11-07T19:49:30.393Z,11.20
2023-11-07T19:51:57.052Z,10.70
2023-11-07T19:54:23.774Z,10.60
2023-11-07T19:56:50.562Z,10.10
2023-11-07T19:59:17.288Z,10.50
2023-11-07T20:01:43.993Z,10.30
2023-11-07T20:04:10.965Z,10.20
2023-11-07T20:06:37.765Z,10.40
2023-11-07T20:09:04.496Z,10.60
2023-11-07T20:11:31.131Z,10.70
2023-11-07T20:13:57.805Z,10.90
2023-11-07T20:16:24.622Z,10.80
2023-11-07T20:18:51.326Z,10.90
2023-11-07T20:21:18.054Z,11.10
2023-11-07T20:23:44.780Z,11.10
2023-11-07T20:26:11.407Z,10.80
2023-11-07T20:28:38.036Z,10.70
2023-11-07T20:31:04.720Z,10.80
2023-11-07T20:33:37.476Z,10.80
2023-11-07T20:36:11.402Z,10.90
2023-11-07T20:38:38.021Z,11.00
2023-11-07T20:41:04.810Z,10.80
2023-11-07T20:43:31.612Z,11.10
2023-11-07T20:45:58.287Z,11.00
2023-11-07T20:48:25.068Z,11.20
2023-11-07T20:50:51.836Z,11.20
2023-11-07T20:53:18.463Z,11.10
2023-11-07T20:55:45.149Z,11.00
2023-11-07T20:58:11.824Z,11.10
2023-11-07T21:00:38.489Z,11.20
2023-11-07T21:03:05.219Z,11.10
2023-11-07T21:05:31.939Z,11.00
2023-11-07T21:07:58.549Z,10.70
2023-11-07T21:10:25.184Z,10.60
2023-11-07T21:12:51.869Z,10.80
2023-11-07T21:15:18.607Z,10.90
2023-11-07T21:17:45.282Z,10.80
2023-11-07T21:20:12.109Z,10.70
2023-11-07T21:22:38.767Z,10.70
2023-11-07T21:25:05.392Z,10.40
2023-11-07T21:27:32.165Z,10.50
2023-11-07T21:29:58.836Z,10.50
2023-11-07T21:32:25.503Z,10.50
2023-11-07T21:34:52.227Z,10.50
2023-11-07T21:37:18.880Z,10.50
2023-11-07T21:39:45.500Z,10.50
2023-11-07T21:42:12.200Z,10.50
2023-11-07T21:44:38.857Z,10.50
2023-11-07T21:47:05.500Z,10.70
2023-11-07T21:49:32.219Z,10.50
2023-11-07T21:51:58.851Z,10.40
2023-11-07T21:54:25.542Z,10.60
2023-11-07T21:56:52.242Z,10.70
2023-11-07T21:59:18.877Z,10.80
2023-11-07T22:01:45.507Z,10.70
2023-11-07T22:04:12.179Z,10.50
2023-11-07T22:06:38.866Z,10.70
2023-11-07T22:09:05.563Z,10.70
2023-11-07T22:11:32.323Z,10.60
2023-11-07T22:13:58.950Z,10.70
2023-11-07T22:16:25.621Z,10.70
2023-11-07T22:18:52.301Z,10.80
2023-11-07T22:21:19.177Z,10.70
2023-11-07T22:23:45.910Z,10.60
2023-11-07T22:26:13.008Z,10.40
2023-11-07T22:28:39.932Z,10.40
2023-11-07T22:31:06.591Z,10.50
2023-11-07T22:33:33.381Z,10.40
2023-11-07T22:36:00.036Z,10.20
2023-11-07T22:38:26.700Z,10.10
2023-11-07T22:40:53.381Z,10.30
2023-11-07T22:43:20.096Z,10.30
2023-11-07T22:45:46.803Z,10.40
2023-11-07T22:48:13.540Z,10.50
2023-11-07T22:50:40.210Z,10.50
2023-11-07T22:53:06.860Z,10.70
2023-11-07T22:55:33.614Z,10.60
2023-11-07T22:58:00.249Z,10.60
2023-11-07T23:00:26.887Z,10.50
2023-11-07T23:02:53.612Z,10.40
2023-11-07T23:05:20.282Z,10.30
2023-11-07T23:07:46.912Z,10.40
2023-11-07T23:10:13.581Z,10.40
2023-11-07T23:12:40.244Z,10.40
2023-11-07T23:15:06.928Z,10.50
2023-11-07T23:17:33.689Z,10.70
2023-11-07T23:20:00.378Z,10.70
2023-11-07T23:22:27.002Z,10.90
2023-11-07T23:24:53.679Z,10.70
2023-11-07T23:27:20.343Z,10.90
2023-11-07T23:29:46.965Z,10.90
2023-11-07T23:32:13.723Z,10.90
2023-11-07T23:34:40.389Z,10.90
2023-11-07T23:37:07.035Z,10.90
2023-11-07T23:39:33.716Z,10.90
2023-11-07T23:42:00.346Z,10.90
2023-11-07T23:44:27.034Z,10.80
2023-11-07T23:46:53.712Z,10.80
2023-11-07T23:49:20.338Z,10.90
2023-11-07T23:51:46.966Z,10.80
2023-11-07T23:54:13.723Z,10.80
2023-11-07T23:56:40.386Z,10.90
2023-11-07T23:59:07.021Z,10.90
